sensor_id;sensor_type;location;lat;lon;timestamp;P1;durP1;ratioP1;P2;durP2;ratioP2
10661;SDS011;5379;51.034;7.006;2022-12-18T00:00:59;10.27;;;8.13;;
10661;SDS011;5379;51.034;7.006;2022-12-18T00:03:30;13.63;;;8.13;;
10661;SDS011;5379;51.034;7.006;2022-12-18T00:05:59;9.73;;;7.75;;
10661;SDS011;5379;51.034;7.006;2022-12-18T00:08:26;11.40;;;8.55;;
10661;SDS011;5379;51.034;7.006;2022-12-18T00:10:54;10.07;;;7.43;;
10661;SDS011;5379;51.034;7.006;2022-12-18T00:13:21;8.85;;;7.05;;
10661;SDS011;5379;51.034;7.006;2022-12-18T00:15:48;9.50;;;7.00;;
10661;SDS011;5379;51.034;7.006;2022-12-18T00:18:15;12.35;;;8.10;;
10661;SDS011;5379;51.034;7.006;2022-12-18T00:20:42;9.63;;;7.03;;
10661;SDS011;5379;51.034;7.006;2022-12-18T00:23:11;10.20;;;7.13;;
10661;SDS011;5379;51.034;7.006;2022-12-18T00:25:38;8.40;;;7.40;;
10661;SDS011;5379;51.034;7.006;2022-12-18T00:28:05;7.70;;;6.53;;
10661;SDS011;5379;51.034;7.006;2022-12-18T00:30:32;9.03;;;6.53;;
10661;SDS011;5379;51.034;7.006;2022-12-18T00:32:59;7.70;;;6.88;;
10661;SDS011;5379;51.034;7.006;2022-12-18T00:35:26;9.27;;;6.67;;
10661;SDS011;5379;51.034;7.006;2022-12-18T00:37:53;11.43;;;7.07;;
10661;SDS011;5379;51.034;7.006;2022-12-18T00:40:21;7.60;;;6.30;;
10661;SDS011;5379;51.034;7.006;2022-12-18T00:42:48;7.72;;;6.45;;
10661;SDS011;5379;51.034;7.006;2022-12-18T00:45:20;9.10;;;6.97;;
10661;SDS011;5379;51.034;7.006;2022-12-18T00:47:50;8.03;;;6.70;;
10661;SDS011;5379;51.034;7.006;2022-12-18T00:50:17;11.20;;;6.43;;
10661;SDS011;5379;51.034;7.006;2022-12-18T00:52:44;8.83;;;6.77;;
10661;SDS011;5379;51.034;7.006;2022-12-18T00:55:11;10.02;;;6.80;;
10661;SDS011;5379;51.034;7.006;2022-12-18T00:57:40;8.23;;;7.00;;
10661;SDS011;5379;51.034;7.006;2022-12-18T01:00:08;7.50;;;6.67;;
10661;SDS011;5379;51.034;7.006;2022-12-18T01:02:37;12.05;;;7.50;;
10661;SDS011;5379;51.034;7.006;2022-12-18T01:05:05;10.53;;;6.47;;
10661;SDS011;5379;51.034;7.006;2022-12-18T01:07:32;9.50;;;7.23;;
10661;SDS011;5379;51.034;7.006;2022-12-18T01:09:59;12.13;;;7.20;;
10661;SDS011;5379;51.034;7.006;2022-12-18T01:12:26;8.97;;;7.37;;
10661;SDS011;5379;51.034;7.006;2022-12-18T01:14:54;8.38;;;6.38;;
10661;SDS011;5379;51.034;7.006;2022-12-18T01:17:21;7.20;;;6.50;;
10661;SDS011;5379;51.034;7.006;2022-12-18T01:19:48;8.43;;;6.97;;
10661;SDS011;5379;51.034;7.006;2022-12-18T01:22:15;8.37;;;6.90;;
10661;SDS011;5379;51.034;7.006;2022-12-18T01:24:42;8.85;;;6.57;;
10661;SDS011;5379;51.034;7.006;2022-12-18T01:27:09;6.85;;;6.10;;
10661;SDS011;5379;51.034;7.006;2022-12-18T01:29:36;10.20;;;6.40;;
10661;SDS011;5379;51.034;7.006;2022-12-18T05:30:32;9.88;;;8.50;;
10661;SDS011;5379;51.034;7.006;2022-12-18T05:32:59;8.13;;;6.95;;
10661;SDS011;5379;51.034;7.006;2022-12-18T05:35:26;11.18;;;7.28;;
10661;SDS011;5379;51.034;7.006;2022-12-18T05:37:52;8.82;;;7.30;;
10661;SDS011;5379;51.034;7.006;2022-12-18T05:40:19;10.13;;;7.05;;
10661;SDS011;5379;51.034;7.006;2022-12-18T05:42:46;10.93;;;7.30;;
10661;SDS011;5379;51.034;7.006;2022-12-18T05:45:13;7.93;;;7.15;;
10661;SDS011;5379;51.034;7.006;2022-12-18T05:47:42;10.27;;;7.32;;
10661;SDS011;5379;51.034;7.006;2022-12-18T05:50:09;7.80;;;6.90;;
10661;SDS011;5379;51.034;7.006;2022-12-18T05:52:36;11.52;;;7.07;;
10661;SDS011;5379;51.034;7.006;2022-12-18T05:55:03;7.57;;;6.75;;
10661;SDS011;5379;51.034;7.006;2022-12-18T05:57:30;8.35;;;7.22;;
10661;SDS011;5379;51.034;7.006;2022-12-18T05:59:57;10.45;;;7.45;;
10661;SDS011;5379;51.034;7.006;2022-12-18T06:02:24;8.25;;;7.15;;
10661;SDS011;5379;51.034;7.006;2022-12-18T06:04:52;11.10;;;7.25;;
10661;SDS011;5379;51.034;7.006;2022-12-18T06:07:19;9.50;;;7.40;;
10661;SDS011;5379;51.034;7.006;2022-12-18T06:09:46;9.93;;;7.95;;
10661;SDS011;5379;51.034;7.006;2022-12-18T06:12:13;8.63;;;7.72;;
10661;SDS011;5379;51.034;7.006;2022-12-18T06:14:40;10.00;;;7.07;;
10661;SDS011;5379;51.034;7.006;2022-12-18T06:17:07;8.35;;;7.57;;
10661;SDS011;5379;51.034;7.006;2022-12-18T06:19:34;9.85;;;7.55;;
10661;SDS011;5379;51.034;7.006;2022-12-18T06:22:03;10.25;;;8.05;;
10661;SDS011;5379;51.034;7.006;2022-12-18T06:24:30;9.18;;;8.10;;
10661;SDS011;5379;51.034;7.006;2022-12-18T06:26:58;8.38;;;7.35;;
10661;SDS011;5379;51.034;7.006;2022-12-18T06:29:25;9.25;;;7.85;;
10661;SDS011;5379;51.034;7.006;2022-12-18T06:31:52;10.40;;;8.32;;
10661;SDS011;5379;51.034;7.006;2022-12-18T06:34:18;15.65;;;8.95;;
10661;SDS011;5379;51.034;7.006;2022-12-18T06:36:45;14.15;;;8.30;;
10661;SDS011;5379;51.034;7.006;2022-12-18T06:39:14;12.32;;;7.88;;
10661;SDS011;5379;51.034;7.006;2022-12-18T06:41:41;9.10;;;7.55;;
10661;SDS011;5379;51.034;7.006;2022-12-18T06:44:08;9.88;;;8.00;;
10661;SDS011;5379;51.034;7.006;2022-12-18T06:46:35;10.65;;;8.27;;
10661;SDS011;5379;51.034;7.006;2022-12-18T06:49:03;11.93;;;7.65;;
10661;SDS011;5379;51.034;7.006;2022-12-18T06:51:30;10.73;;;7.72;;
10661;SDS011;5379;51.034;7.006;2022-12-18T06:53:57;12.63;;;8.30;;
10661;SDS011;5379;51.034;7.006;2022-12-18T06:56:25;10.35;;;7.43;;
10661;SDS011;5379;51.034;7.006;2022-12-18T06:58:53;8.50;;;7.70;;
10661;SDS011;5379;51.034;7.006;2022-12-18T07:01:20;13.68;;;8.60;;
10661;SDS011;5379;51.034;7.006;2022-12-18T07:03:51;10.50;;;8.60;;
10661;SDS011;5379;51.034;7.006;2022-12-18T07:06:20;11.02;;;8.77;;
10661;SDS011;5379;51.034;7.006;2022-12-18T07:08:48;11.25;;;8.88;;
10661;SDS011;5379;51.034;7.006;2022-12-18T07:11:16;10.73;;;8.85;;
10661;SDS011;5379;51.034;7.006;2022-12-18T07:13:45;10.90;;;8.88;;
10661;SDS011;5379;51.034;7.006;2022-12-18T07:16:13;10.95;;;8.43;;
10661;SDS011;5379;51.034;7.006;2022-12-18T07:18:42;11.23;;;8.38;;
10661;SDS011;5379;51.034;7.006;2022-12-18T07:21:10;9.80;;;7.90;;
10661;SDS011;5379;51.034;7.006;2022-12-18T07:23:40;10.68;;;8.88;;
10661;SDS011;5379;51.034;7.006;2022-12-18T07:26:08;10.35;;;8.77;;
10661;SDS011;5379;51.034;7.006;2022-12-18T07:28:36;12.70;;;9.50;;
10661;SDS011;5379;51.034;7.006;2022-12-18T07:31:05;13.52;;;9.57;;
10661;SDS011;5379;51.034;7.006;2022-12-18T07:33:33;13.85;;;9.85;;
10661;SDS011;5379;51.034;7.006;2022-12-18T07:36:01;10.85;;;9.10;;
10661;SDS011;5379;51.034;7.006;2022-12-18T07:38:29;11.88;;;9.63;;
10661;SDS011;5379;51.034;7.006;2022-12-18T07:40:59;11.50;;;8.77;;
10661;SDS011;5379;51.034;7.006;2022-12-18T07:43:27;11.43;;;9.35;;
10661;SDS011;5379;51.034;7.006;2022-12-18T07:45:54;11.88;;;9.55;;
10661;SDS011;5379;51.034;7.006;2022-12-18T07:48:22;10.68;;;8.73;;
10661;SDS011;5379;51.034;7.006;2022-12-18T07:50:49;11.45;;;9.30;;
10661;SDS011;5379;51.034;7.006;2022-12-18T07:53:16;14.60;;;9.73;;
10661;SDS011;5379;51.034;7.006;2022-12-18T07:55:43;12.23;;;8.82;;
10661;SDS011;5379;51.034;7.006;2022-12-18T07:58:10;9.90;;;8.90;;
10661;SDS011;5379;51.034;7.006;2022-12-18T08:00:38;10.15;;;9.02;;
10661;SDS011;5379;51.034;7.006;2022-12-18T08:03:04;13.55;;;9.40;;
10661;SDS011;5379;51.034;7.006;2022-12-18T08:05:33;13.23;;;9.93;;
10661;SDS011;5379;51.034;7.006;2022-12-18T08:08:00;14.57;;;10.32;;
10661;SDS011;5379;51.034;7.006;2022-12-18T08:10:27;12.50;;;8.93;;
10661;SDS011;5379;51.034;7.006;2022-12-18T08:12:54;12.20;;;9.20;;
10661;SDS011;5379;51.034;7.006;2022-12-18T08:15:21;12.35;;;10.25;;
10661;SDS011;5379;51.034;7.006;2022-12-18T08:17:48;9.85;;;8.48;;
10661;SDS011;5379;51.034;7.006;2022-12-18T08:20:15;13.00;;;9.48;;
10661;SDS011;5379;51.034;7.006;2022-12-18T08:22:44;11.65;;;9.70;;
10661;SDS011;5379;51.034;7.006;2022-12-18T08:25:11;10.20;;;8.93;;
10661;SDS011;5379;51.034;7.006;2022-12-18T08:27:38;14.57;;;10.80;;
10661;SDS011;5379;51.034;7.006;2022-12-18T08:30:06;12.23;;;9.30;;
10661;SDS011;5379;51.034;7.006;2022-12-18T08:32:33;12.05;;;9.73;;
10661;SDS011;5379;51.034;7.006;2022-12-18T08:35:01;13.02;;;9.15;;
10661;SDS011;5379;51.034;7.006;2022-12-18T08:37:28;15.18;;;10.20;;
10661;SDS011;5379;51.034;7.006;2022-12-18T08:39:56;17.83;;;9.52;;
10661;SDS011;5379;51.034;7.006;2022-12-18T08:42:23;13.25;;;9.63;;
10661;SDS011;5379;51.034;7.006;2022-12-18T08:45:08;13.98;;;10.15;;
10661;SDS011;5379;51.034;7.006;2022-12-18T08:47:35;12.27;;;10.00;;
10661;SDS011;5379;51.034;7.006;2022-12-18T08:50:02;12.75;;;9.05;;
10661;SDS011;5379;51.034;7.006;2022-12-18T08:52:31;12.98;;;9.38;;
10661;SDS011;5379;51.034;7.006;2022-12-18T08:54:59;13.93;;;10.20;;
10661;SDS011;5379;51.034;7.006;2022-12-18T08:57:26;16.25;;;12.27;;
10661;SDS011;5379;51.034;7.006;2022-12-18T08:59:53;15.98;;;13.25;;
10661;SDS011;5379;51.034;7.006;2022-12-18T09:02:20;14.00;;;11.03;;
10661;SDS011;5379;51.034;7.006;2022-12-18T09:04:47;13.27;;;9.70;;
10661;SDS011;5379;51.034;7.006;2022-12-18T09:07:14;11.87;;;9.47;;
10661;SDS011;5379;51.034;7.006;2022-12-18T09:09:41;11.70;;;9.37;;
10661;SDS011;5379;51.034;7.006;2022-12-18T09:12:10;12.63;;;9.17;;
10661;SDS011;5379;51.034;7.006;2022-12-18T09:14:37;12.75;;;9.05;;
10661;SDS011;5379;51.034;7.006;2022-12-18T09:17:04;13.00;;;9.73;;
10661;SDS011;5379;51.034;7.006;2022-12-18T09:19:31;10.53;;;9.47;;
10661;SDS011;5379;51.034;7.006;2022-12-18T09:21:58;13.63;;;8.80;;
10661;SDS011;5379;51.034;7.006;2022-12-18T09:24:25;10.50;;;8.83;;
10661;SDS011;5379;51.034;7.006;2022-12-18T09:26:52;10.90;;;8.17;;
10661;SDS011;5379;51.034;7.006;2022-12-18T09:29:21;10.33;;;8.47;;
10661;SDS011;5379;51.034;7.006;2022-12-18T09:31:48;12.73;;;8.40;;
10661;SDS011;5379;51.034;7.006;2022-12-18T09:34:15;10.67;;;8.43;;
10661;SDS011;5379;51.034;7.006;2022-12-18T09:36:43;13.13;;;8.40;;
10661;SDS011;5379;51.034;7.006;2022-12-18T09:39:10;9.57;;;7.77;;
10661;SDS011;5379;51.034;7.006;2022-12-18T09:41:41;10.20;;;7.97;;
10661;SDS011;5379;51.034;7.006;2022-12-18T09:44:13;9.97;;;8.10;;
10661;SDS011;5379;51.034;7.006;2022-12-18T09:46:50;12.13;;;7.80;;
10661;SDS011;5379;51.034;7.006;2022-12-18T09:49:25;10.43;;;7.37;;
10661;SDS011;5379;51.034;7.006;2022-12-18T09:51:56;9.70;;;7.67;;
10661;SDS011;5379;51.034;7.006;2022-12-18T09:54:30;10.43;;;8.40;;
10661;SDS011;5379;51.034;7.006;2022-12-18T09:57:01;10.57;;;7.80;;
10661;SDS011;5379;51.034;7.006;2022-12-18T09:59:32;8.13;;;6.63;;
10661;SDS011;5379;51.034;7.006;2022-12-18T10:02:07;8.27;;;7.43;;
10661;SDS011;5379;51.034;7.006;2022-12-18T10:04:43;11.37;;;7.67;;
10661;SDS011;5379;51.034;7.006;2022-12-18T10:07:13;9.50;;;7.17;;
10661;SDS011;5379;51.034;7.006;2022-12-18T10:09:47;7.93;;;7.03;;
10661;SDS011;5379;51.034;7.006;2022-12-18T10:12:21;7.87;;;6.97;;
10661;SDS011;5379;51.034;7.006;2022-12-18T10:14:55;7.97;;;6.40;;
10661;SDS011;5379;51.034;7.006;2022-12-18T10:17:28;8.47;;;6.63;;
10661;SDS011;5379;51.034;7.006;2022-12-18T10:20:10;8.13;;;6.70;;
10661;SDS011;5379;51.034;7.006;2022-12-18T10:22:43;10.93;;;7.57;;
10661;SDS011;5379;51.034;7.006;2022-12-18T10:25:21;8.17;;;6.73;;
10661;SDS011;5379;51.034;7.006;2022-12-18T10:27:51;7.90;;;5.83;;
10661;SDS011;5379;51.034;7.006;2022-12-18T10:30:23;8.67;;;6.53;;
10661;SDS011;5379;51.034;7.006;2022-12-18T10:32:52;7.13;;;6.47;;
10661;SDS011;5379;51.034;7.006;2022-12-18T10:35:20;7.00;;;6.13;;
10661;SDS011;5379;51.034;7.006;2022-12-18T10:38:05;8.63;;;6.47;;
10661;SDS011;5379;51.034;7.006;2022-12-18T10:40:36;9.63;;;6.73;;
10661;SDS011;5379;51.034;7.006;2022-12-18T10:43:15;7.70;;;6.30;;
10661;SDS011;5379;51.034;7.006;2022-12-18T10:48:50;12.50;;;6.27;;
10661;SDS011;5379;51.034;7.006;2022-12-18T10:51:20;12.73;;;6.97;;
10661;SDS011;5379;51.034;7.006;2022-12-18T10:53:52;6.93;;;6.23;;
10661;SDS011;5379;51.034;7.006;2022-12-18T10:56:23;9.43;;;6.40;;
10661;SDS011;5379;51.034;7.006;2022-12-18T10:58:57;10.50;;;6.50;;
10661;SDS011;5379;51.034;7.006;2022-12-18T11:01:27;9.63;;;7.27;;
10661;SDS011;5379;51.034;7.006;2022-12-18T11:04:01;8.33;;;6.50;;
10661;SDS011;5379;51.034;7.006;2022-12-18T11:06:34;9.23;;;7.00;;
10661;SDS011;5379;51.034;7.006;2022-12-18T11:09:21;9.87;;;7.63;;
10661;SDS011;5379;51.034;7.006;2022-12-18T11:11:49;8.37;;;7.47;;
10661;SDS011;5379;51.034;7.006;2022-12-18T11:14:18;9.00;;;7.50;;
10661;SDS011;5379;51.034;7.006;2022-12-18T11:16:50;10.67;;;7.17;;
10661;SDS011;5379;51.034;7.006;2022-12-18T11:19:20;7.50;;;6.80;;
10661;SDS011;5379;51.034;7.006;2022-12-18T11:21:54;6.97;;;5.90;;
10661;SDS011;5379;51.034;7.006;2022-12-18T11:24:23;9.90;;;6.77;;
10661;SDS011;5379;51.034;7.006;2022-12-18T11:26:53;8.47;;;6.77;;
10661;SDS011;5379;51.034;7.006;2022-12-18T11:29:22;12.30;;;7.33;;
10661;SDS011;5379;51.034;7.006;2022-12-18T11:34:57;10.27;;;6.90;;
10661;SDS011;5379;51.034;7.006;2022-12-18T11:37:34;10.03;;;7.60;;
10661;SDS011;5379;51.034;7.006;2022-12-18T11:40:03;13.07;;;7.77;;
10661;SDS011;5379;51.034;7.006;2022-12-18T11:42:38;18.93;;;7.07;;
10661;SDS011;5379;51.034;7.006;2022-12-18T11:48:03;11.33;;;8.13;;
10661;SDS011;5379;51.034;7.006;2022-12-18T11:50:43;17.27;;;7.43;;
10661;SDS011;5379;51.034;7.006;2022-12-18T11:53:14;9.20;;;7.20;;
10661;SDS011;5379;51.034;7.006;2022-12-18T11:55:44;10.23;;;7.87;;
10661;SDS011;5379;51.034;7.006;2022-12-18T11:58:20;28.30;;;8.50;;
10661;SDS011;5379;51.034;7.006;2022-12-18T12:00:57;11.87;;;8.50;;
10661;SDS011;5379;51.034;7.006;2022-12-18T12:03:48;11.40;;;8.70;;
10661;SDS011;5379;51.034;7.006;2022-12-18T12:06:29;14.27;;;8.67;;
10661;SDS011;5379;51.034;7.006;2022-12-18T12:09:08;11.67;;;8.33;;
10661;SDS011;5379;51.034;7.006;2022-12-18T12:11:46;11.53;;;7.43;;
10661;SDS011;5379;51.034;7.006;2022-12-18T12:14:24;15.50;;;9.60;;
10661;SDS011;5379;51.034;7.006;2022-12-18T12:17:02;12.67;;;9.50;;
10661;SDS011;5379;51.034;7.006;2022-12-18T12:19:41;10.77;;;7.93;;
10661;SDS011;5379;51.034;7.006;2022-12-18T12:22:13;12.07;;;8.47;;
10661;SDS011;5379;51.034;7.006;2022-12-18T12:24:55;12.27;;;8.37;;
10661;SDS011;5379;51.034;7.006;2022-12-18T12:27:30;16.43;;;9.13;;
10661;SDS011;5379;51.034;7.006;2022-12-18T12:30:06;13.63;;;9.30;;
10661;SDS011;5379;51.034;7.006;2022-12-18T12:35:31;11.03;;;8.97;;
10661;SDS011;5379;51.034;7.006;2022-12-18T12:38:10;13.53;;;9.20;;
10661;SDS011;5379;51.034;7.006;2022-12-18T12:40:43;15.67;;;9.40;;
10661;SDS011;5379;51.034;7.006;2022-12-18T12:43:21;12.27;;;9.00;;
10661;SDS011;5379;51.034;7.006;2022-12-18T12:45:52;13.97;;;10.17;;
10661;SDS011;5379;51.034;7.006;2022-12-18T12:48:24;15.77;;;9.03;;
10661;SDS011;5379;51.034;7.006;2022-12-18T12:51:01;10.83;;;8.17;;
10661;SDS011;5379;51.034;7.006;2022-12-18T12:53:34;10.07;;;9.00;;
10661;SDS011;5379;51.034;7.006;2022-12-18T12:56:04;11.07;;;9.03;;
10661;SDS011;5379;51.034;7.006;2022-12-18T12:58:34;9.33;;;7.60;;
10661;SDS011;5379;51.034;7.006;2022-12-18T13:01:11;12.60;;;9.07;;
10661;SDS011;5379;51.034;7.006;2022-12-18T13:03:46;13.40;;;9.70;;
10661;SDS011;5379;51.034;7.006;2022-12-18T13:06:27;15.50;;;9.63;;
10661;SDS011;5379;51.034;7.006;2022-12-18T13:09:03;10.87;;;9.37;;
10661;SDS011;5379;51.034;7.006;2022-12-18T13:11:40;13.17;;;9.97;;
10661;SDS011;5379;51.034;7.006;2022-12-18T13:14:30;12.57;;;9.90;;
10661;SDS011;5379;51.034;7.006;2022-12-18T13:17:23;14.27;;;10.23;;
10661;SDS011;5379;51.034;7.006;2022-12-18T13:20:11;15.57;;;10.63;;
10661;SDS011;5379;51.034;7.006;2022-12-18T13:22:42;15.93;;;10.53;;
10661;SDS011;5379;51.034;7.006;2022-12-18T13:28:02;15.70;;;9.93;;
10661;SDS011;5379;51.034;7.006;2022-12-18T13:30:44;12.77;;;10.17;;
10661;SDS011;5379;51.034;7.006;2022-12-18T13:33:38;14.67;;;9.93;;
10661;SDS011;5379;51.034;7.006;2022-12-18T13:39:21;12.00;;;9.47;;
10661;SDS011;5379;51.034;7.006;2022-12-18T13:41:50;14.73;;;10.83;;
10661;SDS011;5379;51.034;7.006;2022-12-18T13:44:26;13.73;;;10.53;;
10661;SDS011;5379;51.034;7.006;2022-12-18T13:46:58;18.07;;;11.37;;
10661;SDS011;5379;51.034;7.006;2022-12-18T13:49:27;14.23;;;10.67;;
10661;SDS011;5379;51.034;7.006;2022-12-18T13:52:02;16.80;;;10.60;;
10661;SDS011;5379;51.034;7.006;2022-12-18T13:54:45;18.13;;;11.27;;
10661;SDS011;5379;51.034;7.006;2022-12-18T13:57:25;24.10;;;10.47;;
10661;SDS011;5379;51.034;7.006;2022-12-18T13:59:53;11.37;;;9.97;;
10661;SDS011;5379;51.034;7.006;2022-12-18T14:02:21;16.77;;;11.80;;
10661;SDS011;5379;51.034;7.006;2022-12-18T14:04:50;13.10;;;10.80;;
10661;SDS011;5379;51.034;7.006;2022-12-18T14:07:18;17.30;;;12.47;;
10661;SDS011;5379;51.034;7.006;2022-12-18T14:09:48;18.73;;;12.30;;
10661;SDS011;5379;51.034;7.006;2022-12-18T14:12:17;15.33;;;12.07;;
10661;SDS011;5379;51.034;7.006;2022-12-18T14:15:05;13.87;;;11.27;;
10661;SDS011;5379;51.034;7.006;2022-12-18T14:17:37;19.07;;;10.93;;
10661;SDS011;5379;51.034;7.006;2022-12-18T14:20:12;11.87;;;10.67;;
10661;SDS011;5379;51.034;7.006;2022-12-18T14:22:42;12.30;;;10.57;;
10661;SDS011;5379;51.034;7.006;2022-12-18T14:25:17;12.83;;;10.77;;
10661;SDS011;5379;51.034;7.006;2022-12-18T14:27:47;15.10;;;10.60;;
10661;SDS011;5379;51.034;7.006;2022-12-18T14:30:23;16.63;;;11.33;;
10661;SDS011;5379;51.034;7.006;2022-12-18T14:33:00;21.27;;;10.83;;
10661;SDS011;5379;51.034;7.006;2022-12-18T14:35:28;15.60;;;11.17;;
10661;SDS011;5379;51.034;7.006;2022-12-18T14:38:08;16.10;;;11.10;;
10661;SDS011;5379;51.034;7.006;2022-12-18T14:40:47;16.57;;;11.00;;
10661;SDS011;5379;51.034;7.006;2022-12-18T14:43:18;18.60;;;11.63;;
10661;SDS011;5379;51.034;7.006;2022-12-18T14:45:46;16.17;;;11.37;;
10661;SDS011;5379;51.034;7.006;2022-12-18T14:48:17;12.83;;;11.50;;
10661;SDS011;5379;51.034;7.006;2022-12-18T14:50:54;15.57;;;11.70;;
10661;SDS011;5379;51.034;7.006;2022-12-18T14:53:32;12.90;;;11.17;;
10661;SDS011;5379;51.034;7.006;2022-12-18T14:56:10;16.87;;;11.33;;
10661;SDS011;5379;51.034;7.006;2022-12-18T14:58:45;14.40;;;11.00;;
10661;SDS011;5379;51.034;7.006;2022-12-18T15:01:18;18.20;;;12.23;;
10661;SDS011;5379;51.034;7.006;2022-12-18T15:03:47;14.83;;;10.70;;
10661;SDS011;5379;51.034;7.006;2022-12-18T15:06:15;13.30;;;11.10;;
10661;SDS011;5379;51.034;7.006;2022-12-18T15:08:43;19.57;;;11.47;;
10661;SDS011;5379;51.034;7.006;2022-12-18T15:13:57;13.73;;;11.30;;
10661;SDS011;5379;51.034;7.006;2022-12-18T15:16:25;14.40;;;11.70;;
10661;SDS011;5379;51.034;7.006;2022-12-18T15:18:53;15.57;;;12.63;;
10661;SDS011;5379;51.034;7.006;2022-12-18T15:21:20;17.07;;;13.27;;
10661;SDS011;5379;51.034;7.006;2022-12-18T15:23:48;17.07;;;11.60;;
10661;SDS011;5379;51.034;7.006;2022-12-18T15:26:16;17.43;;;12.73;;
10661;SDS011;5379;51.034;7.006;2022-12-18T15:28:47;17.93;;;11.67;;
10661;SDS011;5379;51.034;7.006;2022-12-18T15:31:23;16.83;;;10.87;;
10661;SDS011;5379;51.034;7.006;2022-12-18T15:36:38;13.37;;;9.87;;
10661;SDS011;5379;51.034;7.006;2022-12-18T15:39:06;16.33;;;11.50;;
10661;SDS011;5379;51.034;7.006;2022-12-18T15:41:33;15.63;;;12.17;;
10661;SDS011;5379;51.034;7.006;2022-12-18T15:44:03;13.60;;;11.77;;
10661;SDS011;5379;51.034;7.006;2022-12-18T15:46:47;16.77;;;12.40;;
10661;SDS011;5379;51.034;7.006;2022-12-18T15:49:14;15.70;;;12.50;;
10661;SDS011;5379;51.034;7.006;2022-12-18T15:51:41;18.40;;;13.10;;
10661;SDS011;5379;51.034;7.006;2022-12-18T15:54:09;21.80;;;12.10;;
10661;SDS011;5379;51.034;7.006;2022-12-18T15:56:40;18.47;;;13.70;;
10661;SDS011;5379;51.034;7.006;2022-12-18T15:59:26;18.33;;;13.50;;
10661;SDS011;5379;51.034;7.006;2022-12-18T16:01:53;16.13;;;13.07;;
10661;SDS011;5379;51.034;7.006;2022-12-18T16:04:21;18.67;;;14.13;;
10661;SDS011;5379;51.034;7.006;2022-12-18T16:06:49;20.03;;;14.20;;
10661;SDS011;5379;51.034;7.006;2022-12-18T16:09:17;18.13;;;13.10;;
10661;SDS011;5379;51.034;7.006;2022-12-18T16:11:45;19.57;;;13.30;;
10661;SDS011;5379;51.034;7.006;2022-12-18T16:14:17;21.20;;;14.30;;
10661;SDS011;5379;51.034;7.006;2022-12-18T16:16:47;19.30;;;12.97;;
10661;SDS011;5379;51.034;7.006;2022-12-18T16:19:17;16.47;;;11.70;;
10661;SDS011;5379;51.034;7.006;2022-12-18T16:21:45;19.83;;;13.57;;
10661;SDS011;5379;51.034;7.006;2022-12-18T16:24:13;20.20;;;14.63;;
10661;SDS011;5379;51.034;7.006;2022-12-18T16:26:42;19.03;;;13.03;;
10661;SDS011;5379;51.034;7.006;2022-12-18T16:29:09;22.37;;;16.30;;
10661;SDS011;5379;51.034;7.006;2022-12-18T16:31:37;24.80;;;15.17;;
10661;SDS011;5379;51.034;7.006;2022-12-18T16:34:15;19.13;;;14.10;;
10661;SDS011;5379;51.034;7.006;2022-12-18T16:36:47;19.80;;;14.90;;
10661;SDS011;5379;51.034;7.006;2022-12-18T16:39:14;17.23;;;13.67;;
10661;SDS011;5379;51.034;7.006;2022-12-18T16:41:41;22.10;;;15.90;;
10661;SDS011;5379;51.034;7.006;2022-12-18T16:44:08;24.43;;;14.57;;
10661;SDS011;5379;51.034;7.006;2022-12-18T16:46:36;23.17;;;15.07;;
10661;SDS011;5379;51.034;7.006;2022-12-18T16:49:04;25.17;;;16.30;;
10661;SDS011;5379;51.034;7.006;2022-12-18T16:51:33;24.37;;;15.07;;
10661;SDS011;5379;51.034;7.006;2022-12-18T16:54:00;22.67;;;15.87;;
10661;SDS011;5379;51.034;7.006;2022-12-18T16:56:27;26.20;;;16.00;;
10661;SDS011;5379;51.034;7.006;2022-12-18T16:58:55;25.30;;;16.53;;
10661;SDS011;5379;51.034;7.006;2022-12-18T17:01:25;28.97;;;17.30;;
10661;SDS011;5379;51.034;7.006;2022-12-18T17:03:55;22.67;;;15.87;;
10661;SDS011;5379;51.034;7.006;2022-12-18T17:06:24;22.03;;;15.83;;
10661;SDS011;5379;51.034;7.006;2022-12-18T17:08:55;22.17;;;16.10;;
10661;SDS011;5379;51.034;7.006;2022-12-18T17:11:25;21.37;;;16.73;;
10661;SDS011;5379;51.034;7.006;2022-12-18T17:13:54;26.97;;;17.33;;
10661;SDS011;5379;51.034;7.006;2022-12-18T17:16:21;25.43;;;16.70;;
10661;SDS011;5379;51.034;7.006;2022-12-18T17:18:49;21.00;;;15.40;;
10661;SDS011;5379;51.034;7.006;2022-12-18T17:21:18;21.20;;;16.57;;
10661;SDS011;5379;51.034;7.006;2022-12-18T17:23:45;21.90;;;16.30;;
10661;SDS011;5379;51.034;7.006;2022-12-18T17:26:14;21.90;;;15.10;;
10661;SDS011;5379;51.034;7.006;2022-12-18T17:28:41;20.03;;;15.90;;
10661;SDS011;5379;51.034;7.006;2022-12-18T17:31:11;26.30;;;16.73;;
10661;SDS011;5379;51.034;7.006;2022-12-18T17:33:40;24.07;;;16.23;;
10661;SDS011;5379;51.034;7.006;2022-12-18T17:36:07;24.13;;;16.83;;
10661;SDS011;5379;51.034;7.006;2022-12-18T17:38:35;20.67;;;16.50;;
10661;SDS011;5379;51.034;7.006;2022-12-18T17:41:02;22.33;;;16.63;;
10661;SDS011;5379;51.034;7.006;2022-12-18T17:43:31;24.30;;;18.57;;
10661;SDS011;5379;51.034;7.006;2022-12-18T17:46:00;31.73;;;21.03;;
10661;SDS011;5379;51.034;7.006;2022-12-18T17:48:28;20.63;;;16.00;;
10661;SDS011;5379;51.034;7.006;2022-12-18T17:50:56;30.10;;;19.17;;
10661;SDS011;5379;51.034;7.006;2022-12-18T17:53:26;28.53;;;17.17;;
10661;SDS011;5379;51.034;7.006;2022-12-18T17:55:54;24.10;;;17.93;;
10661;SDS011;5379;51.034;7.006;2022-12-18T17:58:21;28.33;;;19.00;;
10661;SDS011;5379;51.034;7.006;2022-12-18T18:00:49;30.43;;;18.50;;
10661;SDS011;5379;51.034;7.006;2022-12-18T18:03:17;25.23;;;17.77;;
10661;SDS011;5379;51.034;7.006;2022-12-18T18:05:44;21.70;;;17.23;;
10661;SDS011;5379;51.034;7.006;2022-12-18T18:08:11;28.33;;;19.57;;
10661;SDS011;5379;51.034;7.006;2022-12-18T18:10:38;24.47;;;14.97;;
10661;SDS011;5379;51.034;7.006;2022-12-18T18:13:06;25.67;;;18.60;;
10661;SDS011;5379;51.034;7.006;2022-12-18T18:16:01;24.30;;;17.90;;
10661;SDS011;5379;51.034;7.006;2022-12-18T18:18:28;28.37;;;18.23;;
10661;SDS011;5379;51.034;7.006;2022-12-18T18:20:56;25.90;;;18.50;;
10661;SDS011;5379;51.034;7.006;2022-12-18T18:23:23;27.47;;;17.60;;
10661;SDS011;5379;51.034;7.006;2022-12-18T18:25:52;33.83;;;16.80;;
10661;SDS011;5379;51.034;7.006;2022-12-18T18:28:19;27.03;;;18.23;;
10661;SDS011;5379;51.034;7.006;2022-12-18T18:30:46;34.50;;;19.17;;
10661;SDS011;5379;51.034;7.006;2022-12-18T18:33:14;30.37;;;18.97;;
10661;SDS011;5379;51.034;7.006;2022-12-18T18:35:42;26.60;;;18.87;;
10661;SDS011;5379;51.034;7.006;2022-12-18T18:38:10;22.53;;;16.97;;
10661;SDS011;5379;51.034;7.006;2022-12-18T18:40:37;23.83;;;17.97;;
10661;SDS011;5379;51.034;7.006;2022-12-18T18:43:04;25.30;;;18.23;;
10661;SDS011;5379;51.034;7.006;2022-12-18T18:45:31;27.27;;;18.80;;
10661;SDS011;5379;51.034;7.006;2022-12-18T18:47:58;28.50;;;21.73;;
10661;SDS011;5379;51.034;7.006;2022-12-18T18:50:26;31.53;;;19.83;;
10661;SDS011;5379;51.034;7.006;2022-12-18T18:52:53;26.57;;;18.03;;
10661;SDS011;5379;51.034;7.006;2022-12-18T18:55:20;24.93;;;18.07;;
10661;SDS011;5379;51.034;7.006;2022-12-18T18:57:47;24.37;;;17.97;;
10661;SDS011;5379;51.034;7.006;2022-12-18T19:00:14;27.77;;;19.33;;
10661;SDS011;5379;51.034;7.006;2022-12-18T19:02:42;26.90;;;19.07;;
10661;SDS011;5379;51.034;7.006;2022-12-18T19:05:09;28.40;;;19.43;;
10661;SDS011;5379;51.034;7.006;2022-12-18T19:07:37;25.17;;;18.07;;
10661;SDS011;5379;51.034;7.006;2022-12-18T19:10:05;24.90;;;17.97;;
10661;SDS011;5379;51.034;7.006;2022-12-18T19:12:33;23.40;;;15.93;;
10661;SDS011;5379;51.034;7.006;2022-12-18T19:15:17;19.37;;;15.67;;
10661;SDS011;5379;51.034;7.006;2022-12-18T19:17:45;28.77;;;18.57;;
10661;SDS011;5379;51.034;7.006;2022-12-18T19:20:12;29.77;;;18.57;;
10661;SDS011;5379;51.034;7.006;2022-12-18T19:22:41;32.90;;;18.37;;
10661;SDS011;5379;51.034;7.006;2022-12-18T19:25:08;41.33;;;19.00;;